Time,TemperatureF,DewpointF,PressureIn,WindDirection,WindDirectionDegrees,WindSpeedMPH,WindSpeedGustMPH,Humidity,HourlyPrecipIn,Conditions,Clouds,dailyrainin,SolarRadiationWatts/m^2,SoftwareType,DateUTC
2013-08-15 00:02:00,67.0,44.0,-100.00,WNW,299,4.0,5.0,43,0.00,,,0.00,0.000000,,2013-08-15 06:02:00,
2013-08-15 00:11:00,67.0,44.0,-100.00,WNW,299,4.0,5.0,43,0.00,,,0.00,0.000000,,2013-08-15 06:11:00,
2013-08-15 00:21:00,67.0,44.0,-100.00,WNW,299,4.0,5.0,43,0.00,,,0.00,0.000000,,2013-08-15 06:21:00,
2013-08-15 00:30:00,61.0,40.0,-100.00,SSE,168,1.0,7.0,45,0.00,,,0.00,0.000000,,2013-08-15 06:30:00,
2013-08-15 00:52:00,61.0,40.0,-100.00,SSE,168,1.0,7.0,45,0.00,,,0.00,0.000000,,2013-08-15 06:52:00,
2013-08-15 01:02:00,61.0,40.0,-100.00,SSE,168,1.0,7.0,45,0.00,,,0.00,0.000000,,2013-08-15 07:02:00,
2013-08-15 01:11:00,61.0,40.0,-100.00,SSE,168,1.0,7.0,45,0.00,,,0.00,0.000000,,2013-08-15 07:11:00,
2013-08-15 01:21:00,61.0,40.0,-100.00,SSE,168,1.0,7.0,45,0.00,,,0.00,0.000000,,2013-08-15 07:21:00,
2013-08-15 01:30:00,64.0,47.0,-100.00,WSW,249,5.0,8.0,54,0.00,,,0.00,0.000000,,2013-08-15 07:30:00,
2013-08-15 01:52:00,64.0,47.0,-100.00,WSW,249,5.0,8.0,54,0.00,,,0.00,0.000000,,2013-08-15 07:52:00,
2013-08-15 02:02:00,64.0,47.0,-100.00,WSW,249,5.0,8.0,54,0.00,,,0.00,0.000000,,2013-08-15 08:02:00,
2013-08-15 02:11:00,64.0,47.0,-100.00,WSW,249,5.0,8.0,54,0.00,,,0.00,0.000000,,2013-08-15 08:11:00,
2013-08-15 02:21:00,64.0,47.0,-100.00,WSW,249,5.0,8.0,54,0.00,,,0.00,0.000000,,2013-08-15 08:21:00,
2013-08-15 02:30:00,62.0,43.0,-100.00,West,266,7.0,9.0,49,0.00,,,0.00,0.000000,,2013-08-15 08:30:00,
2013-08-15 02:52:00,62.0,43.0,-100.00,West,266,7.0,9.0,49,0.00,,,0.00,0.000000,,2013-08-15 08:52:00,
2013-08-15 03:01:00,62.0,43.0,-100.00,West,266,7.0,9.0,49,0.00,,,0.00,0.000000,,2013-08-15 09:01:00,
2013-08-15 03:11:00,62.0,43.0,-100.00,West,266,7.0,9.0,49,0.00,,,0.00,0.000000,,2013-08-15 09:11:00,
2013-08-15 03:21:00,62.0,43.0,-100.00,West,266,7.0,9.0,49,0.00,,,0.00,0.000000,,2013-08-15 09:21:00,
2013-08-15 03:30:00,60.0,42.0,-100.00,WSW,256,7.0,8.0,52,0.00,,,0.00,0.000000,,2013-08-15 09:30:00,
2013-08-15 03:53:00,60.0,42.0,-100.00,WSW,256,7.0,8.0,52,0.00,,,0.00,0.000000,,2013-08-15 09:53:00,
2013-08-15 04:03:00,60.0,42.0,-100.00,WSW,256,7.0,8.0,52,0.00,,,0.00,0.000000,,2013-08-15 10:03:00,
2013-08-15 04:12:00,60.0,42.0,-100.00,WSW,256,7.0,8.0,52,0.00,,,0.00,0.000000,,2013-08-15 10:12:00,
2013-08-15 04:22:00,60.0,42.0,-100.00,WSW,256,7.0,8.0,52,0.00,,,0.00,0.000000,,2013-08-15 10:22:00,
2013-08-15 04:30:00,58.0,42.0,-100.00,WSW,247,6.0,10.0,56,0.00,,,0.00,0.000000,,2013-08-15 10:30:00,
2013-08-15 04:52:00,58.0,42.0,-100.00,WSW,247,6.0,10.0,56,0.00,,,0.00,0.000000,,2013-08-15 10:52:00,
2013-08-15 05:02:00,58.0,42.0,-100.00,WSW,247,6.0,10.0,56,0.00,,,0.00,0.000000,,2013-08-15 11:02:00,
2013-08-15 05:11:00,58.0,42.0,-100.00,WSW,247,6.0,10.0,56,0.00,,,0.00,0.000000,,2013-08-15 11:11:00,
2013-08-15 05:22:00,58.0,42.0,-100.00,WSW,247,6.0,10.0,56,0.00,,,0.00,0.000000,,2013-08-15 11:22:00,
2013-08-15 05:30:00,54.0,42.0,-100.00,WSW,244,6.0,8.0,64,0.00,,,0.00,0.000000,,2013-08-15 11:30:00,
2013-08-15 05:52:00,54.0,42.0,-100.00,WSW,244,6.0,8.0,64,0.00,,,0.00,0.000000,,2013-08-15 11:52:00,
2013-08-15 06:01:00,54.0,42.0,-100.00,WSW,244,6.0,8.0,64,0.00,,,0.00,0.000000,,2013-08-15 12:01:00,
2013-08-15 06:11:00,54.0,42.0,-100.00,WSW,244,6.0,8.0,64,0.00,,,0.00,0.000000,,2013-08-15 12:11:00,
2013-08-15 06:21:00,54.0,42.0,-100.00,WSW,244,6.0,8.0,64,0.00,,,0.00,0.000000,,2013-08-15 12:21:00,
2013-08-15 06:30:00,54.0,42.0,-100.00,SW,233,7.0,8.0,64,0.00,,,0.00,1.000000,,2013-08-15 12:30:00,
2013-08-15 06:52:00,54.0,42.0,-100.00,SW,233,7.0,8.0,64,0.00,,,0.00,1.000000,,2013-08-15 12:52:00,
2013-08-15 07:01:00,54.0,42.0,-100.00,SW,233,7.0,8.0,64,0.00,,,0.00,1.000000,,2013-08-15 13:01:00,
2013-08-15 07:11:00,54.0,42.0,-100.00,SW,233,7.0,8.0,64,0.00,,,0.00,1.000000,,2013-08-15 13:11:00,
2013-08-15 07:21:00,54.0,42.0,-100.00,SW,233,7.0,8.0,64,0.00,,,0.00,1.000000,,2013-08-15 13:21:00,
2013-08-15 07:30:00,55.0,44.0,-100.00,WNW,284,2.0,7.0,67,0.00,,,0.00,39.000000,,2013-08-15 13:30:00,
2013-08-15 07:52:00,55.0,44.0,-100.00,WNW,284,2.0,7.0,67,0.00,,,0.00,39.000000,,2013-08-15 13:52:00,
2013-08-15 08:01:00,55.0,44.0,-100.00,WNW,284,2.0,7.0,67,0.00,,,0.00,39.000000,,2013-08-15 14:01:00,
2013-08-15 08:22:00,55.0,44.0,-100.00,WNW,284,2.0,7.0,67,0.00,,,0.00,39.000000,,2013-08-15 14:22:00,
2013-08-15 08:30:00,63.0,48.0,-100.00,East,94,2.0,7.0,57,0.00,,,0.00,200.000000,,2013-08-15 14:30:00,
2013-08-15 09:23:00,63.0,48.0,-100.00,East,94,2.0,7.0,57,0.00,,,0.00,200.000000,,2013-08-15 15:23:00,
2013-08-15 09:30:00,70.0,45.0,-100.00,SW,232,7.0,8.0,40,0.00,,,0.00,400.000000,,2013-08-15 15:30:00,
2013-08-15 09:54:00,70.0,45.0,-100.00,SW,232,7.0,8.0,40,0.00,,,0.00,400.000000,,2013-08-15 15:54:00,
2013-08-15 10:03:00,70.0,45.0,-100.00,SW,232,7.0,8.0,40,0.00,,,0.00,400.000000,,2013-08-15 16:03:00,
2013-08-15 10:13:00,70.0,45.0,-100.00,SW,232,7.0,8.0,40,0.00,,,0.00,400.000000,,2013-08-15 16:13:00,
2013-08-15 10:26:00,70.0,45.0,-100.00,SW,232,7.0,8.0,40,0.00,,,0.00,400.000000,,2013-08-15 16:26:00,
2013-08-15 10:30:00,79.0,-99.9,-100.00,WNW,283,7.0,11.0,29,0.00,,,0.00,603.000000,,2013-08-15 16:30:00,
2013-08-15 10:55:00,79.0,44.0,-100.00,WNW,283,7.0,11.0,29,0.00,,,0.00,603.000000,,2013-08-15 16:55:00,
2013-08-15 11:06:00,79.0,44.0,-100.00,WNW,283,7.0,11.0,29,0.00,,,0.00,603.000000,,2013-08-15 17:06:00,
2013-08-15 11:18:00,79.0,44.0,-100.00,WNW,283,7.0,11.0,29,0.00,,,0.00,603.000000,,2013-08-15 17:18:00,
2013-08-15 11:30:00,-999.0,-99.9,-100.00,WSW,258,4.0,10.0,-999,0.00,,,0.00,755.000000,,2013-08-15 17:30:00,
2013-08-15 12:00:00,-999.0,-99.9,-100.00,WSW,258,4.0,10.0,-999,-99.99,,,-99.99,755.000000,,2013-08-15 18:00:00,
2013-08-15 12:10:00,86.0,44.0,-100.00,WSW,258,4.0,10.0,23,0.00,,,0.00,755.000000,,2013-08-15 18:10:00,
2013-08-15 12:30:00,-999.0,-99.9,-100.00,WSW,245,6.0,14.0,-999,-99.99,,,-99.99,918.000000,,2013-08-15 18:30:00,
2013-08-15 13:06:00,-999.0,-99.9,-100.00,WSW,245,6.0,14.0,-999,0.00,,,0.00,918.000000,,2013-08-15 19:06:00,
2013-08-15 13:17:00,92.0,38.0,-100.00,WSW,245,6.0,14.0,15,0.00,,,0.00,918.000000,,2013-08-15 19:17:00,
2013-08-15 13:30:00,92.0,38.0,-100.00,SW,225,8.0,15.0,15,0.00,,,0.00,913.000000,,2013-08-15 19:30:00,
2013-08-15 14:10:00,92.0,38.0,-100.00,SW,225,8.0,15.0,15,0.00,,,0.00,913.000000,,2013-08-15 20:10:00,
2013-08-15 14:27:00,92.0,38.0,-100.00,SW,225,8.0,15.0,15,0.00,,,0.00,913.000000,,2013-08-15 20:27:00,
2013-08-15 14:59:00,97.0,38.0,-100.00,SW,220,7.0,13.0,13,0.00,,,0.00,1037.000000,,2013-08-15 20:59:00,
2013-08-15 15:05:00,97.0,38.0,-100.00,SW,220,7.0,13.0,13,0.00,,,0.00,1037.000000,,2013-08-15 21:05:00,
2013-08-15 15:17:00,97.0,38.0,-100.00,SW,220,7.0,13.0,13,0.00,,,0.00,1037.000000,,2013-08-15 21:17:00,
2013-08-15 16:30:00,-999.0,-99.9,-100.00,WNW,296,12.0,22.0,7,0.00,,,0.00,897.000000,,2013-08-15 22:30:00,
2013-08-15 18:30:00,-999.0,-99.9,-100.00,WNW,296,13.0,-999.0,-999,-99.99,,,-99.99,,,2013-08-16 00:30:00,
2013-08-15 22:30:00,72.0,32.0,-100.00,WNW,283,5.0,9.0,23,0.00,,,0.00,0.000000,,2013-08-16 04:30:00,
2013-08-15 22:53:00,72.0,32.0,-100.00,WNW,283,5.0,9.0,23,0.00,,,0.00,0.000000,,2013-08-16 04:53:00,
2013-08-15 23:02:00,72.0,32.0,-100.00,WNW,283,5.0,9.0,23,0.00,,,0.00,0.000000,,2013-08-16 05:02:00,
2013-08-15 23:11:00,72.0,32.0,-100.00,WNW,283,5.0,9.0,23,0.00,,,0.00,0.000000,,2013-08-16 05:11:00,
2013-08-15 23:21:00,72.0,32.0,-100.00,WNW,283,5.0,9.0,23,0.00,,,0.00,0.000000,,2013-08-16 05:21:00,